Time;durP1;ratioP1;P1;durP2;ratioP2;P2;SDS_P1;SDS_P2;PMS_P1;PMS_P2;Temp;Humidity;BMP_temperature;BMP_pressure;BME280_temperature;BME280_humidity;BME280_pressure;Samples;Min_cycle;Max_cycle;Signal;HPM_P1;HPM_P2
2022/12/24 00:01:00;;;;;;;21.92;9.82;;;6.50;99.90;;;;;;5040227;28;20402;-73
2022/12/24 00:03:26;;;;;;;20.40;9.95;;;6.50;99.90;;;;;;5040217;28;20029;-74
2022/12/24 00:05:52;;;;;;;26.63;11.05;;;6.50;99.90;;;;;;5022299;28;20049;-74
2022/12/24 00:08:18;;;;;;;22.60;9.55;;;6.50;99.90;;;;;;5039942;28;20032;-76
2022/12/24 00:10:44;;;;;;;24.35;10.65;;;6.50;99.90;;;;;;5040079;28;20025;-73
2022/12/24 00:13:09;;;;;;;19.42;9.55;;;6.50;99.90;;;;;;5021819;28;20025;-72
2022/12/24 00:15:35;;;;;;;23.65;9.90;;;6.50;99.90;;;;;;5022611;28;20094;-73
2022/12/24 00:18:01;;;;;;;22.75;10.23;;;6.50;99.90;;;;;;5039580;28;20044;-73
2022/12/24 00:20:26;;;;;;;24.27;10.23;;;6.50;99.90;;;;;;5026741;28;20069;-73
2022/12/24 00:22:52;;;;;;;23.75;10.65;;;6.50;99.90;;;;;;5059844;28;20047;-73
2022/12/24 00:25:17;;;;;;;18.92;8.50;;;6.50;99.90;;;;;;5074511;28;20060;-74
2022/12/24 00:27:43;;;;;;;21.20;10.55;;;6.50;99.90;;;;;;5042133;28;20047;-75
2022/12/24 00:30:09;;;;;;;22.30;9.57;;;6.50;99.90;;;;;;5059922;28;20055;-73
2022/12/24 00:32:36;;;;;;;25.80;10.20;;;6.50;99.90;;;;;;5060112;28;20032;-74
2022/12/24 00:35:02;;;;;;;24.17;10.00;;;6.50;99.90;;;;;;5061702;28;20021;-76
2022/12/24 00:37:27;;;;;;;19.98;10.85;;;6.50;99.90;;;;;;5063721;28;20032;-73
2022/12/24 00:39:53;;;;;;;24.60;10.40;;;6.50;99.90;;;;;;5063582;28;20103;-74
2022/12/24 00:42:18;;;;;;;22.27;10.85;;;6.50;99.90;;;;;;5045582;28;20029;-74
2022/12/24 00:44:44;;;;;;;20.17;9.93;;;6.50;99.90;;;;;;5063201;28;20021;-75
2022/12/24 00:47:10;;;;;;;21.10;9.18;;;6.50;99.90;;;;;;5063930;28;20040;-74
2022/12/24 00:49:35;;;;;;;21.13;9.75;;;6.50;99.90;;;;;;5045801;28;20029;-75
2022/12/24 00:52:02;;;;;;;22.58;9.80;;;6.50;99.90;;;;;;5045440;28;20044;-74
2022/12/24 00:54:27;;;;;;;22.65;9.77;;;6.50;99.90;;;;;;5045283;28;20100;-75
2022/12/24 00:56:53;;;;;;;20.05;9.50;;;6.50;99.90;;;;;;5045225;28;20045;-73
2022/12/24 00:59:18;;;;;;;20.67;10.05;;;6.50;99.90;;;;;;5045092;28;20040;-72
2022/12/24 01:01:44;;;;;;;22.90;9.48;;;6.50;99.90;;;;;;5063450;28;20112;-73
2022/12/24 01:06:54;;;;;;;20.85;9.50;;;6.50;99.90;;;;;;5062751;28;20058;-73
2022/12/24 01:09:20;;;;;;;20.60;9.10;;;6.50;99.90;;;;;;5062843;28;20056;-73
2022/12/24 01:11:45;;;;;;;19.77;9.82;;;6.40;99.90;;;;;;5062021;28;20066;-73
2022/12/24 01:14:11;;;;;;;24.83;9.02;;;6.50;99.90;;;;;;5062856;28;20029;-72
2022/12/24 01:16:37;;;;;;;19.73;8.80;;;6.50;99.90;;;;;;5044840;28;20047;-73
2022/12/24 01:19:03;;;;;;;22.20;9.98;;;6.50;99.90;;;;;;5062852;28;21011;-74
2022/12/24 01:21:28;;;;;;;24.38;9.35;;;6.50;99.90;;;;;;5044660;28;20053;-75
2022/12/24 01:23:54;;;;;;;19.95;8.75;;;6.50;99.90;;;;;;5062190;28;20017;-73
2022/12/24 01:26:19;;;;;;;19.85;8.85;;;6.50;99.90;;;;;;5044568;28;20041;-72
2022/12/24 01:28:45;;;;;;;22.17;9.98;;;6.50;99.90;;;;;;5063019;28;20433;-73
2022/12/24 01:31:13;;;;;;;21.52;9.13;;;6.40;99.90;;;;;;5062950;28;20027;-73
2022/12/24 01:33:39;;;;;;;20.50;9.70;;;6.50;99.90;;;;;;5043694;28;20822;-72
2022/12/24 01:36:05;;;;;;;19.70;9.52;;;6.50;99.90;;;;;;5062784;28;20025;-73
2022/12/24 01:38:30;;;;;;;20.13;9.30;;;6.50;99.90;;;;;;5044510;28;20601;-72
2022/12/24 01:43:40;;;;;;;17.85;8.80;;;6.40;99.90;;;;;;5062864;28;20051;-74
2022/12/24 01:46:26;;;;;;;19.00;8.98;;;6.40;99.90;;;;;;5076166;28;20585;-74
2022/12/24 01:48:56;;;;;;;20.88;9.63;;;6.50;99.90;;;;;;5062015;28;20020;-72
2022/12/24 01:51:36;;;;;;;20.05;9.70;;;6.50;99.90;;;;;;5062074;28;20053;-73
2022/12/24 01:54:10;;;;;;;18.45;9.18;;;6.50;99.90;;;;;;5062386;28;20090;-72
2022/12/24 01:56:43;;;;;;;17.70;8.20;;;6.50;99.90;;;;;;5062552;28;20036;-71
2022/12/24 01:59:13;;;;;;;20.00;9.18;;;6.50;99.90;;;;;;5061794;28;20254;-74
2022/12/24 02:01:39;;;;;;;22.90;9.43;;;6.50;99.90;;;;;;5062219;28;20043;-73
2022/12/24 02:04:14;;;;;;;22.52;9.60;;;6.50;99.90;;;;;;5044181;28;20028;-72
2022/12/24 02:06:40;;;;;;;27.10;9.75;;;6.50;99.90;;;;;;5062040;28;20061;-73
2022/12/24 02:09:06;;;;;;;21.25;8.70;;;6.50;99.90;;;;;;5061932;28;20087;-71
2022/12/24 02:11:35;;;;;;;24.05;9.50;;;6.40;99.90;;;;;;5061146;28;20029;-73
2022/12/24 02:14:01;;;;;;;24.25;9.18;;;6.40;99.90;;;;;;5061284;28;20028;-72
2022/12/24 02:16:33;;;;;;;21.88;10.00;;;6.40;99.90;;;;;;5061905;28;20021;-72
2022/12/24 02:19:33;;;;;;;19.50;9.30;;;6.50;99.90;;;;;;5062173;28;20451;-73
2022/12/24 02:22:13;;;;;;;19.17;9.30;;;6.50;99.90;;;;;;5054069;28;20053;-72
2022/12/24 02:25:07;;;;;;;18.73;8.63;;;6.50;99.90;;;;;;5057400;28;20024;-73
2022/12/24 02:27:56;;;;;;;25.73;8.88;;;6.50;99.90;;;;;;5043860;28;20031;-72
2022/12/24 02:30:37;;;;;;;17.15;8.63;;;6.50;99.90;;;;;;5043207;28;20039;-71
2022/12/24 02:33:12;;;;;;;17.13;8.60;;;6.40;99.90;;;;;;5060553;28;20025;-72
2022/12/24 02:35:47;;;;;;;18.80;9.00;;;6.40;99.90;;;;;;5043790;28;20107;-72
2022/12/24 02:38:27;;;;;;;17.90;8.38;;;6.50;99.90;;;;;;5043707;28;20108;-73
2022/12/24 02:41:07;;;;;;;19.48;9.07;;;6.50;99.90;;;;;;5057899;28;20028;-73
2022/12/24 02:43:38;;;;;;;17.85;8.95;;;6.40;99.90;;;;;;5059074;28;20025;-72
2022/12/24 02:46:17;;;;;;;16.30;7.93;;;6.40;99.90;;;;;;5058996;28;20079;-73
2022/12/24 02:48:45;;;;;;;19.02;7.57;;;6.40;99.90;;;;;;5059626;28;20397;-72
2022/12/24 02:51:10;;;;;;;16.45;8.02;;;6.40;99.90;;;;;;5057789;28;20056;-72
2022/12/24 02:53:37;;;;;;;17.50;8.32;;;6.30;99.90;;;;;;5059342;28;20022;-71
2022/12/24 02:56:28;;;;;;;18.02;8.02;;;6.30;99.90;;;;;;5043042;28;20029;-72
2022/12/24 02:59:31;;;;;;;18.73;8.55;;;6.30;99.90;;;;;;5058845;28;20016;-72
2022/12/24 03:02:18;;;;;;;22.27;8.07;;;6.30;99.90;;;;;;5039546;28;20032;-73
2022/12/24 03:05:19;;;;;;;19.88;7.93;;;6.30;99.90;;;;;;5052504;28;20049;-74
2022/12/24 03:08:20;;;;;;;20.70;8.65;;;6.30;99.90;;;;;;5056106;28;20041;-73
2022/12/24 03:11:01;;;;;;;15.30;7.43;;;6.30;99.90;;;;;;5060080;28;20017;-74
2022/12/24 03:13:28;;;;;;;18.85;8.35;;;6.30;99.90;;;;;;5041858;28;20063;-72
2022/12/24 03:15:53;;;;;;;21.52;7.45;;;6.30;99.90;;;;;;5059187;28;20764;-73
2022/12/24 03:18:23;;;;;;;15.20;7.07;;;6.30;99.90;;;;;;5058346;28;20057;-73
2022/12/24 03:20:55;;;;;;;16.10;7.88;;;6.30;99.90;;;;;;5059311;28;20076;-73
2022/12/24 03:23:21;;;;;;;17.10;7.90;;;6.30;99.90;;;;;;5060148;28;20059;-73
2022/12/24 03:25:46;;;;;;;19.10;8.50;;;6.30;99.90;;;;;;5060147;28;20130;-72
2022/12/24 03:28:16;;;;;;;16.30;7.25;;;6.20;99.90;;;;;;5059368;28;20056;-74
2022/12/24 03:30:44;;;;;;;17.50;8.13;;;6.30;99.90;;;;;;5059932;28;20024;-73
2022/12/24 03:33:11;;;;;;;19.25;8.90;;;6.30;99.90;;;;;;5059579;28;20025;-74
2022/12/24 03:35:36;;;;;;;17.42;7.65;;;6.20;99.90;;;;;;5060315;28;20055;-72
2022/12/24 03:38:03;;;;;;;20.35;8.18;;;6.30;99.90;;;;;;5059926;28;21038;-74
2022/12/24 03:40:29;;;;;;;19.25;7.88;;;6.40;99.90;;;;;;5058627;28;20021;-72
2022/12/24 03:42:55;;;;;;;12.98;7.32;;;6.30;99.90;;;;;;5059355;28;20024;-74
2022/12/24 03:45:20;;;;;;;20.88;7.43;;;6.30;99.90;;;;;;5059316;28;20059;-73
2022/12/24 03:47:46;;;;;;;15.80;7.85;;;6.30;99.90;;;;;;5059649;28;20033;-74
2022/12/24 03:50:12;;;;;;;20.15;8.40;;;6.30;99.90;;;;;;5041555;28;20044;-73
2022/12/24 03:52:38;;;;;;;15.40;7.88;;;6.30;99.90;;;;;;5059239;28;20442;-73
2022/12/24 03:55:04;;;;;;;15.35;7.28;;;6.30;99.90;;;;;;5041491;28;20032;-73
2022/12/24 03:57:30;;;;;;;12.07;7.28;;;6.30;99.90;;;;;;5041229;28;20029;-73
2022/12/24 03:59:55;;;;;;;14.63;7.10;;;6.30;99.90;;;;;;5059525;28;20031;-74
2022/12/24 04:02:21;;;;;;;14.63;6.85;;;6.40;99.90;;;;;;5059490;28;20025;-75
2022/12/24 04:04:46;;;;;;;13.75;7.10;;;6.30;99.90;;;;;;5041656;28;20029;-73
2022/12/24 04:07:12;;;;;;;15.68;7.43;;;6.40;99.90;;;;;;5060232;28;20037;-74
2022/12/24 04:09:39;;;;;;;14.85;7.90;;;6.40;99.90;;;;;;5060831;28;20080;-73
2022/12/24 04:12:05;;;;;;;14.98;7.20;;;6.50;99.90;;;;;;5045742;28;20092;-73
2022/12/24 04:14:30;;;;;;;14.10;7.07;;;6.40;99.90;;;;;;5063559;28;20017;-75
2022/12/24 04:16:56;;;;;;;12.93;6.72;;;6.50;99.90;;;;;;5045212;28;20029;-72
2022/12/24 04:19:21;;;;;;;13.55;6.78;;;6.50;99.90;;;;;;5045386;28;20473;-73
2022/12/24 04:21:47;;;;;;;16.42;7.97;;;6.50;99.90;;;;;;5043863;28;20064;-75
2022/12/24 04:24:13;;;;;;;14.48;7.32;;;6.50;99.90;;;;;;5059191;28;20032;-76
2022/12/24 04:26:40;;;;;;;16.42;7.63;;;6.50;99.90;;;;;;5059200;28;20044;-76
2022/12/24 04:29:06;;;;;;;13.80;7.32;;;6.40;99.90;;;;;;5063643;28;20060;-74
2022/12/24 04:31:31;;;;;;;14.73;7.03;;;6.50;99.90;;;;;;5054215;28;20045;-75
2022/12/24 04:33:57;;;;;;;13.07;6.88;;;6.40;99.90;;;;;;5042447;28;20070;-73
2022/12/24 04:36:23;;;;;;;15.00;7.20;;;6.50;99.90;;;;;;5044131;28;20075;-73
2022/12/24 04:38:49;;;;;;;14.20;6.57;;;6.40;99.90;;;;;;5052861;28;20085;-74
2022/12/24 04:41:20;;;;;;;12.45;6.68;;;6.40;99.90;;;;;;5042192;28;20021;-73
2022/12/24 04:43:46;;;;;;;14.30;6.75;;;6.40;99.90;;;;;;5052510;28;20030;-73
2022/12/24 04:46:18;;;;;;;20.33;7.25;;;6.40;99.90;;;;;;5041100;28;20037;-75
2022/12/24 04:48:49;;;;;;;13.15;6.57;;;6.40;99.90;;;;;;5053046;28;20042;-76
2022/12/24 04:51:16;;;;;;;15.60;7.47;;;6.40;99.90;;;;;;5041543;28;20021;-75
2022/12/24 04:53:42;;;;;;;12.00;6.57;;;6.40;99.90;;;;;;5041441;28;20147;-75
2022/12/24 04:56:12;;;;;;;14.32;7.07;;;6.30;99.90;;;;;;5044185;28;20025;-75
2022/12/24 04:58:38;;;;;;;13.75;7.07;;;6.30;99.90;;;;;;5052507;28;20013;-76
2022/12/24 05:01:06;;;;;;;15.07;7.00;;;6.30;99.90;;;;;;5052466;28;20034;-74
2022/12/24 05:03:32;;;;;;;15.93;6.80;;;6.40;99.90;;;;;;5052462;28;20017;-76
2022/12/24 05:06:05;;;;;;;17.23;7.43;;;6.30;99.90;;;;;;5051753;28;20040;-74
2022/12/24 05:08:31;;;;;;;16.45;8.20;;;6.40;99.90;;;;;;5043516;28;20026;-74
2022/12/24 05:10:57;;;;;;;16.05;7.32;;;6.40;99.90;;;;;;5052332;28;20036;-74
2022/12/24 05:13:23;;;;;;;14.18;7.20;;;6.40;99.90;;;;;;5055701;28;20043;-73
2022/12/24 05:15:50;;;;;;;17.75;8.13;;;6.40;99.90;;;;;;5057613;28;20029;-75
2022/12/24 05:18:16;;;;;;;18.80;7.65;;;6.40;99.90;;;;;;5059508;28;20036;-76
2022/12/24 05:20:42;;;;;;;17.20;7.15;;;6.40;99.90;;;;;;5057062;28;20049;-74
2022/12/24 05:28:44;;;;;;;16.48;7.93;;;6.30;99.90;;;;;;5062539;28;20587;-74
2022/12/24 05:31:09;;;;;;;19.15;7.85;;;6.40;99.90;;;;;;5061875;28;20025;-74
2022/12/24 05:33:35;;;;;;;17.95;7.72;;;6.40;99.90;;;;;;5061150;28;20056;-74
2022/12/24 05:36:01;;;;;;;17.50;7.60;;;6.40;99.90;;;;;;5063296;28;20025;-74
2022/12/24 05:38:26;;;;;;;14.35;7.55;;;6.40;99.90;;;;;;5055894;28;20025;-74
2022/12/24 05:40:52;;;;;;;15.38;7.97;;;6.40;99.90;;;;;;5043616;28;20454;-76
2022/12/24 05:43:17;;;;;;;16.67;7.90;;;6.40;99.90;;;;;;5043403;28;20071;-74
2022/12/24 05:45:43;;;;;;;25.80;8.00;;;6.40;99.90;;;;;;5043923;28;20067;-74
2022/12/24 05:48:08;;;;;;;14.75;8.05;;;6.50;99.90;;;;;;5045075;28;20025;-75
2022/12/24 05:50:35;;;;;;;19.02;8.55;;;6.40;99.90;;;;;;5061622;28;20094;-75
2022/12/24 05:53:01;;;;;;;16.20;8.68;;;6.50;99.90;;;;;;5061296;28;20032;-75
2022/12/24 05:55:26;;;;;;;15.63;8.20;;;6.50;99.90;;;;;;5061605;28;20092;-77
2022/12/24 05:57:52;;;;;;;23.92;9.45;;;6.50;99.90;;;;;;5061012;28;20031;-76
2022/12/24 06:00:18;;;;;;;16.00;8.77;;;6.50;99.90;;;;;;5043367;28;20124;-75
2022/12/24 06:02:45;;;;;;;18.27;8.95;;;6.50;99.90;;;;;;5044563;28;20032;-74
2022/12/24 06:05:10;;;;;;;17.13;8.88;;;6.50;99.90;;;;;;5061432;28;20062;-76
2022/12/24 06:07:36;;;;;;;18.25;9.68;;;6.60;99.90;;;;;;5044334;28;20099;-75
2022/12/24 06:10:01;;;;;;;22.10;9.48;;;6.60;99.90;;;;;;5044208;28;20028;-74
2022/12/24 06:12:27;;;;;;;23.70;8.90;;;6.70;99.90;;;;;;5043129;28;20389;-76
2022/12/24 06:14:53;;;;;;;18.15;9.40;;;6.70;99.90;;;;;;5061259;28;20029;-74
2022/12/24 06:17:19;;;;;;;20.92;9.55;;;6.70;99.90;;;;;;5061426;28;20029;-74
2022/12/24 06:19:44;;;;;;;24.88;9.98;;;6.70;99.90;;;;;;5061053;28;20093;-74
2022/12/24 06:22:10;;;;;;;17.88;9.27;;;6.80;99.90;;;;;;5025089;28;20061;-76
2022/12/24 06:24:35;;;;;;;16.83;8.75;;;6.80;99.90;;;;;;5042770;28;20526;-75
2022/12/24 06:27:02;;;;;;;24.23;9.90;;;6.80;99.90;;;;;;5024560;28;20512;-75
2022/12/24 06:29:28;;;;;;;17.85;9.40;;;6.80;99.90;;;;;;5042365;28;20038;-75
2022/12/24 06:31:53;;;;;;;22.60;9.40;;;6.70;99.90;;;;;;5041093;28;20041;-76
2022/12/24 06:34:19;;;;;;;20.48;10.55;;;6.80;99.90;;;;;;5042168;28;20040;-74
2022/12/24 06:36:45;;;;;;;30.08;13.18;;;6.90;99.90;;;;;;5024510;28;20030;-75
2022/12/24 06:39:11;;;;;;;32.03;14.32;;;6.80;99.90;;;;;;5042481;28;20022;-78
2022/12/24 06:41:36;;;;;;;35.03;15.38;;;6.80;99.90;;;;;;5024491;28;20035;-74
2022/12/24 06:44:02;;;;;;;31.70;15.23;;;6.80;99.90;;;;;;5024020;28;20485;-75
2022/12/24 06:46:27;;;;;;;38.85;16.60;;;6.80;99.90;;;;;;5042301;28;20056;-76
2022/12/24 06:49:00;;;;;;;44.20;16.65;;;6.90;99.90;;;;;;5040764;28;20036;-74
2022/12/24 06:51:25;;;;;;;37.95;17.63;;;6.90;99.90;;;;;;5041962;28;20032;-74
2022/12/24 06:53:52;;;;;;;41.67;18.77;;;6.90;99.90;;;;;;5042020;28;20026;-74
2022/12/24 06:56:20;;;;;;;35.88;17.08;;;7.00;99.90;;;;;;5041883;28;20542;-74
2022/12/24 06:58:46;;;;;;;46.22;18.50;;;7.00;99.90;;;;;;5023983;28;20470;-75
2022/12/24 07:01:15;;;;;;;41.13;19.00;;;7.00;99.90;;;;;;5041563;28;20117;-76
2022/12/24 07:03:41;;;;;;;48.88;21.35;;;7.00;99.90;;;;;;5041870;28;20026;-74
2022/12/24 07:06:22;;;;;;;55.35;20.70;;;7.10;99.90;;;;;;5040264;28;20029;-75
2022/12/24 07:08:51;;;;;;;44.50;19.00;;;7.10;99.90;;;;;;5040705;28;20065;-74
2022/12/24 07:11:17;;;;;;;52.42;21.15;;;7.10;99.90;;;;;;5023113;28;20087;-72
2022/12/24 07:13:43;;;;;;;48.58;22.58;;;7.10;99.90;;;;;;5024055;28;20022;-70
2022/12/24 07:16:09;;;;;;;45.72;21.63;;;7.20;99.90;;;;;;5041808;28;20041;-70
2022/12/24 07:18:34;;;;;;;51.65;22.52;;;7.20;99.90;;;;;;5038248;28;20033;-72
2022/12/24 07:21:03;;;;;;;46.10;21.08;;;7.20;99.90;;;;;;5040963;28;20485;-70
2022/12/24 07:23:30;;;;;;;53.25;21.45;;;7.30;99.90;;;;;;5040866;28;20030;-71
2022/12/24 07:26:00;;;;;;;47.33;20.48;;;7.30;99.90;;;;;;5040696;28;20038;-72
2022/12/24 07:28:25;;;;;;;46.08;20.80;;;7.30;99.90;;;;;;5038522;28;20030;-72
2022/12/24 07:30:51;;;;;;;45.75;19.67;;;7.40;99.90;;;;;;5039125;28;20121;-72
2022/12/24 07:33:17;;;;;;;43.03;19.20;;;7.40;99.90;;;;;;5022340;28;20033;-72
2022/12/24 07:35:42;;;;;;;44.47;18.80;;;7.40;99.90;;;;;;5021048;28;20022;-73
2022/12/24 07:38:08;;;;;;;43.13;19.90;;;7.40;99.90;;;;;;5033516;28;20041;-71
2022/12/24 07:40:34;;;;;;;44.55;18.98;;;7.50;99.90;;;;;;5037689;28;20108;-72
2022/12/24 07:42:59;;;;;;;47.00;19.52;;;7.50;99.90;;;;;;5016485;28;20996;-72
2022/12/24 07:45:25;;;;;;;42.42;18.73;;;7.50;99.90;;;;;;5020736;28;20013;-72
2022/12/24 07:47:50;;;;;;;40.83;16.67;;;7.60;99.90;;;;;;5037829;28;20081;-75
2022/12/24 07:50:16;;;;;;;45.25;16.13;;;7.50;99.90;;;;;;5022180;28;20036;-71
2022/12/24 07:52:42;;;;;;;36.42;15.40;;;7.60;99.90;;;;;;5040899;28;20033;-71
2022/12/24 07:55:07;;;;;;;51.70;16.73;;;7.60;99.90;;;;;;5021598;28;20068;-71
2022/12/24 07:57:34;;;;;;;43.58;16.88;;;7.60;99.90;;;;;;5040892;28;20025;-71
2022/12/24 07:59:59;;;;;;;46.58;16.02;;;7.60;99.90;;;;;;5040972;28;20109;-72
2022/12/24 08:02:25;;;;;;;52.05;13.18;;;7.60;99.90;;;;;;5040870;28;20017;-72
2022/12/24 08:04:50;;;;;;;53.92;12.65;;;7.70;99.90;;;;;;5040818;28;20025;-72
2022/12/24 08:07:16;;;;;;;38.97;11.13;;;7.70;99.90;;;;;;5040778;28;20037;-71
2022/12/24 08:09:43;;;;;;;47.35;9.60;;;7.70;99.90;;;;;;5041016;28;20033;-72
2022/12/24 08:12:09;;;;;;;54.47;9.93;;;7.80;99.90;;;;;;5022981;28;20026;-71
2022/12/24 08:14:37;;;;;;;43.08;12.07;;;7.80;99.90;;;;;;5039408;28;20026;-73
2022/12/24 08:17:03;;;;;;;38.17;9.55;;;7.90;99.90;;;;;;5040483;28;20079;-70
2022/12/24 08:19:29;;;;;;;48.53;9.27;;;7.90;99.90;;;;;;5022979;28;20093;-71
2022/12/24 08:21:54;;;;;;;33.10;7.07;;;8.00;99.90;;;;;;5039154;28;20048;-75
2022/12/24 08:24:20;;;;;;;50.13;8.25;;;8.00;99.90;;;;;;5057845;28;20028;-69
2022/12/24 08:26:46;;;;;;;39.97;7.82;;;8.00;99.90;;;;;;5058159;28;20025;-74
2022/12/24 08:29:11;;;;;;;57.97;8.25;;;8.00;99.90;;;;;;5060328;28;20036;-71
2022/12/24 08:31:37;;;;;;;55.00;7.88;;;8.00;99.90;;;;;;5054913;28;20033;-72
2022/12/24 08:34:04;;;;;;;53.03;7.53;;;8.20;99.90;;;;;;5059656;28;20029;-70
2022/12/24 08:36:30;;;;;;;51.25;8.13;;;8.10;99.90;;;;;;5059100;28;21046;-71
2022/12/24 08:38:56;;;;;;;51.35;8.05;;;8.10;99.90;;;;;;5042416;28;20040;-70
2022/12/24 08:41:21;;;;;;;48.50;7.72;;;8.20;99.90;;;;;;5059942;28;20045;-69
2022/12/24 08:43:47;;;;;;;45.53;6.90;;;8.20;99.90;;;;;;5060704;28;20036;-70
2022/12/24 08:46:12;;;;;;;44.40;7.20;;;8.20;99.90;;;;;;5042959;28;20068;-70
2022/12/24 08:48:38;;;;;;;49.70;8.18;;;8.20;99.90;;;;;;5059037;28;20033;-70
2022/12/24 08:51:11;;;;;;;47.33;8.02;;;8.30;99.90;;;;;;5059808;28;20051;-70
2022/12/24 08:53:37;;;;;;;41.80;7.30;;;8.20;99.90;;;;;;5060702;28;20029;-70
2022/12/24 08:56:05;;;;;;;57.60;9.10;;;8.30;99.90;;;;;;5043934;28;20025;-71
2022/12/24 08:58:31;;;;;;;54.85;8.82;;;8.30;99.90;;;;;;5063155;28;20032;-71
2022/12/24 09:00:57;;;;;;;58.38;8.70;;;8.50;99.90;;;;;;5062496;28;20063;-71
2022/12/24 09:03:22;;;;;;;50.88;8.57;;;8.50;99.90;;;;;;5063399;28;20036;-71
2022/12/24 09:05:48;;;;;;;45.45;9.75;;;8.50;99.90;;;;;;5060190;28;20060;-70
2022/12/24 09:08:14;;;;;;;41.05;7.95;;;8.50;99.90;;;;;;5062511;28;20028;-70
2022/12/24 09:10:40;;;;;;;54.90;8.63;;;8.50;99.90;;;;;;5063626;28;20060;-71
2022/12/24 09:13:07;;;;;;;65.90;8.18;;;8.50;99.90;;;;;;5061036;28;20032;-72
2022/12/24 09:15:32;;;;;;;48.38;8.52;;;8.50;99.90;;;;;;5061769;28;20178;-71
2022/12/24 09:17:59;;;;;;;46.42;8.07;;;8.50;99.90;;;;;;5062131;28;20064;-72
2022/12/24 09:20:25;;;;;;;39.15;7.78;;;8.50;99.90;;;;;;5060533;28;20515;-69
2022/12/24 09:22:50;;;;;;;54.65;9.07;;;8.50;99.90;;;;;;5063029;28;20025;-70
2022/12/24 09:25:16;;;;;;;58.40;9.93;;;8.40;99.90;;;;;;5045625;28;20037;-70
2022/12/24 09:27:41;;;;;;;46.85;8.88;;;8.50;99.90;;;;;;5062456;28;20083;-70
2022/12/24 09:30:08;;;;;;;51.00;10.57;;;8.50;99.90;;;;;;5062757;28;20045;-69
2022/12/24 09:32:33;;;;;;;47.55;8.23;;;8.50;99.90;;;;;;5063416;28;20074;-70
2022/12/24 09:35:00;;;;;;;41.28;7.90;;;8.60;99.90;;;;;;5062519;28;20077;-70
2022/12/24 09:37:25;;;;;;;55.15;8.35;;;8.60;99.90;;;;;;5062437;28;20530;-69
2022/12/24 09:39:51;;;;;;;48.20;9.43;;;8.70;99.90;;;;;;5057488;28;20052;-70
2022/12/24 09:42:50;;;;;;;45.40;10.23;;;8.90;99.90;;;;;;5062382;28;20073;-71
2022/12/24 09:45:21;;;;;;;43.90;8.00;;;9.10;99.90;;;;;;5063276;28;20033;-69
2022/12/24 09:47:54;;;;;;;51.97;10.05;;;9.40;99.90;;;;;;5062879;28;20028;-70
2022/12/24 09:50:50;;;;;;;50.67;9.13;;;9.40;99.90;;;;;;5061843;28;20025;-72
2022/12/24 09:53:32;;;;;;;54.10;8.82;;;9.30;99.90;;;;;;5062686;28;20033;-70
2022/12/24 09:56:01;;;;;;;55.95;9.10;;;9.20;99.90;;;;;;5062859;28;20036;-70
2022/12/24 09:58:33;;;;;;;50.92;9.27;;;9.20;99.90;;;;;;5061361;28;20043;-71
2022/12/24 10:00:58;;;;;;;43.20;7.65;;;9.10;99.90;;;;;;5061372;28;20029;-69
2022/12/24 10:03:24;;;;;;;44.63;8.52;;;9.10;99.90;;;;;;5062787;28;20143;-70
2022/12/24 10:06:16;;;;;;;58.90;8.73;;;9.10;99.90;;;;;;5044388;28;20497;-70
2022/12/24 10:08:42;;;;;;;49.78;8.52;;;9.10;99.90;;;;;;5043803;28;20029;-70
2022/12/24 10:11:36;;;;;;;59.63;7.72;;;9.20;99.90;;;;;;5061445;28;20037;-69
2022/12/24 10:14:27;;;;;;;49.42;8.18;;;9.10;99.90;;;;;;5059413;28;20048;-69
2022/12/24 10:17:12;;;;;;;60.53;11.48;;;9.20;99.90;;;;;;5060603;28;20108;-70
2022/12/24 10:20:06;;;;;;;67.30;14.80;;;9.40;99.90;;;;;;5062529;28;20037;-71
2022/12/24 10:22:43;;;;;;;45.80;8.65;;;9.50;99.90;;;;;;5060236;28;20065;-70
2022/12/24 10:25:17;;;;;;;39.67;7.68;;;9.60;99.90;;;;;;5060903;28;20025;-68
2022/12/24 10:27:43;;;;;;;;;;;9.70;99.90;;;;;;5062204;28;20045;-69
2022/12/24 10:30:18;;;;;;;40.00;7.85;;;9.80;99.90;;;;;;5062635;28;19916;-70
2022/12/24 10:32:48;;;;;;;42.33;7.95;;;9.80;99.90;;;;;;5062500;28;20025;-68
2022/12/24 10:35:14;;;;;;;41.28;8.18;;;9.80;99.90;;;;;;5043861;28;20040;-69
2022/12/24 10:37:41;;;;;;;44.20;8.27;;;9.70;99.90;;;;;;5062456;28;20088;-70
2022/12/24 10:40:17;;;;;;;44.20;7.95;;;9.70;99.90;;;;;;5061172;28;20028;-70
2022/12/24 10:42:43;;;;;;;38.90;8.27;;;9.60;99.90;;;;;;5057779;28;20033;-71
2022/12/24 10:45:20;;;;;;;52.28;9.02;;;9.60;99.90;;;;;;5059850;28;20037;-70
2022/12/24 10:47:57;;;;;;;42.78;8.35;;;9.60;99.90;;;;;;5061248;28;20413;-71
2022/12/24 10:50:34;;;;;;;45.13;9.52;;;9.60;99.90;;;;;;5060693;28;20060;-68
2022/12/24 10:53:15;;;;;;;43.65;7.60;;;9.50;99.90;;;;;;5043847;28;20040;-69
2022/12/24 10:55:41;;;;;;;42.15;7.40;;;9.50;99.90;;;;;;5062166;28;20043;-68
2022/12/24 10:58:14;;;;;;;40.15;7.85;;;9.50;99.90;;;;;;5061698;28;20021;-69
2022/12/24 11:00:40;;;;;;;35.67;7.55;;;9.50;99.90;;;;;;5060870;28;20076;-70
2022/12/24 11:03:11;;;;;;;49.10;8.75;;;9.50;99.90;;;;;;5042926;28;20029;-69
2022/12/24 11:05:38;;;;;;;43.72;7.50;;;9.50;99.90;;;;;;5041942;28;20033;-70
2022/12/24 11:08:11;;;;;;;36.50;8.00;;;9.50;99.90;;;;;;5061548;28;20032;-69
2022/12/24 11:10:43;;;;;;;52.03;8.30;;;9.50;99.90;;;;;;5060427;28;20012;-68
2022/12/24 11:13:44;;;;;;;39.38;7.93;;;9.50;99.90;;;;;;5059881;28;20418;-70
2022/12/24 11:16:34;;;;;;;40.65;8.20;;;9.60;99.90;;;;;;5049295;28;20033;-70
2022/12/24 11:19:18;;;;;;;47.50;8.45;;;9.60;99.90;;;;;;5059682;28;20028;-70
2022/12/24 11:21:43;;;;;;;46.95;7.38;;;9.60;99.90;;;;;;5056212;28;20060;-70
2022/12/24 11:24:12;;;;;;;33.30;6.88;;;9.80;99.90;;;;;;5059752;28;20025;-70
2022/12/24 11:26:40;;;;;;;44.28;7.72;;;10.00;99.90;;;;;;5060871;28;20041;-70
2022/12/24 11:29:14;;;;;;;47.63;8.02;;;10.10;99.90;;;;;;5042087;28;20740;-71
2022/12/24 11:31:42;;;;;;;42.15;7.60;;;10.10;99.90;;;;;;5058031;28;20111;-71
2022/12/24 11:34:31;;;;;;;41.20;8.35;;;10.00;99.90;;;;;;5057899;28;20025;-70
2022/12/24 11:37:16;;;;;;;47.35;7.70;;;10.00;99.90;;;;;;5058529;28;20037;-68
2022/12/24 11:39:48;;;;;;;40.05;8.60;;;10.00;99.90;;;;;;5060274;28;20041;-71
2022/12/24 11:42:41;;;;;;;46.78;8.52;;;9.90;99.90;;;;;;5058766;28;20041;-69
2022/12/24 11:45:20;;;;;;;40.13;7.88;;;9.90;99.90;;;;;;5047547;28;20041;-70
2022/12/24 11:47:46;;;;;;;39.05;7.75;;;9.80;99.90;;;;;;5054713;28;20132;-69
2022/12/24 11:50:35;;;;;;;59.55;10.23;;;9.80;99.90;;;;;;5057940;28;20061;-70
2022/12/24 11:53:11;;;;;;;36.35;8.57;;;9.80;99.90;;;;;;5051932;28;20044;-68
2022/12/24 11:55:44;;;;;;;34.20;7.68;;;9.80;99.90;;;;;;5060061;28;20033;-67
2022/12/24 11:58:31;;;;;;;51.38;8.05;;;9.80;99.90;;;;;;5049963;28;20483;-69
2022/12/24 12:01:10;;;;;;;43.28;8.70;;;9.90;99.90;;;;;;5059359;28;20032;-69
2022/12/24 12:03:46;;;;;;;35.67;8.45;;;10.00;99.90;;;;;;5057839;28;20033;-69
2022/12/24 12:06:22;;;;;;;41.05;9.30;;;10.00;99.90;;;;;;5057347;28;20041;-69
2022/12/24 12:08:51;;;;;;;31.42;7.65;;;9.90;99.90;;;;;;5057619;28;20025;-68
2022/12/24 12:11:18;;;;;;;44.17;8.10;;;9.90;99.90;;;;;;5059434;28;20021;-69
2022/12/24 12:13:45;;;;;;;37.40;7.95;;;10.00;99.90;;;;;;5040396;28;20025;-71
2022/12/24 12:17:00;;;;;;;43.25;7.88;;;10.00;99.90;;;;;;5060149;28;20036;-70
2022/12/24 12:19:30;;;;;;;47.35;8.50;;;10.00;99.90;;;;;;5020267;28;20060;-69
2022/12/24 12:21:57;;;;;;;36.90;8.48;;;10.00;99.90;;;;;;5041503;28;20077;-68
2022/12/24 12:24:32;;;;;;;38.97;8.25;;;9.90;99.90;;;;;;5021091;28;20117;-69
2022/12/24 12:27:32;;;;;;;39.63;7.90;;;9.90;99.90;;;;;;5038935;28;20045;-68
2022/12/24 12:30:05;;;;;;;38.58;8.30;;;9.80;99.90;;;;;;5039447;28;20105;-69
2022/12/24 12:32:42;;;;;;;29.45;7.50;;;9.70;99.90;;;;;;5040726;28;20513;-69
2022/12/24 12:35:29;;;;;;;44.53;8.98;;;9.80;99.90;;;;;;5041142;28;20045;-69
2022/12/24 12:37:57;;;;;;;44.22;10.00;;;9.80;99.90;;;;;;5041400;28;20052;-69
2022/12/24 12:40:33;;;;;;;39.60;7.55;;;9.80;99.90;;;;;;5041298;28;20017;-69
2022/12/24 12:43:12;;;;;;;44.58;9.57;;;9.90;99.90;;;;;;5041244;28;20025;-69
2022/12/24 12:45:55;;;;;;;62.97;12.95;;;9.90;99.90;;;;;;5042022;28;20044;-69
2022/12/24 12:48:33;;;;;;;48.45;13.02;;;10.00;99.90;;;;;;5040438;28;20034;-69
2022/12/24 12:51:19;;;;;;;56.10;15.48;;;10.00;99.90;;;;;;5040339;28;20071;-69
2022/12/24 12:53:52;;;;;;;39.88;12.48;;;10.00;99.90;;;;;;5040774;28;20093;-69
2022/12/24 12:56:32;;;;;;;50.30;10.63;;;10.00;99.90;;;;;;5040662;28;20048;-67
2022/12/24 12:59:13;;;;;;;45.58;9.52;;;10.00;99.90;;;;;;5039250;28;20060;-71
2022/12/24 13:02:12;;;;;;;45.80;11.15;;;10.00;99.90;;;;;;5041814;28;20493;-69
2022/12/24 13:05:01;;;;;;;42.15;9.80;;;10.10;99.90;;;;;;5040652;28;20021;-69
2022/12/24 13:08:02;;;;;;;36.03;9.82;;;10.00;99.90;;;;;;5040468;28;20029;-70
2022/12/24 13:10:46;;;;;;;36.13;9.82;;;10.00;99.90;;;;;;5040141;28;20025;-71